Time;durP1;ratioP1;P1;durP2;ratioP2;P2;SDS_P1;SDS_P2;PMS_P1;PMS_P2;Temp;Humidity;BMP_temperature;BMP_pressure;BME280_temperature;BME280_humidity;BME280_pressure;Samples;Min_cycle;Max_cycle;Signal;HPM_P1;HPM_P2
2022/05/08 00:02:18;;;;;;;29.00;21.50;;;11.80;99.90;;;;;;5030236;28;20152;-74
2022/05/08 00:04:49;;;;;;;27.55;20.85;;;11.70;99.90;;;;;;5042737;28;20056;-74
2022/05/08 00:07:17;;;;;;;24.65;19.35;;;11.70;99.90;;;;;;5042975;28;20075;-73
2022/05/08 00:09:45;;;;;;;22.08;19.55;;;11.60;99.90;;;;;;5023706;28;20131;-71
2022/05/08 00:12:13;;;;;;;24.83;20.33;;;11.60;99.90;;;;;;5039218;28;20040;-74
2022/05/08 00:14:41;;;;;;;29.38;21.05;;;11.60;99.90;;;;;;5035575;28;20048;-73
2022/05/08 00:17:13;;;;;;;24.55;20.25;;;11.60;99.90;;;;;;5043930;28;20048;-72
2022/05/08 00:19:41;;;;;;;26.83;19.48;;;11.50;99.90;;;;;;5025413;28;20053;-73
2022/05/08 00:22:10;;;;;;;27.27;19.92;;;11.40;99.90;;;;;;5031704;28;20041;-74
2022/05/08 00:24:56;;;;;;;28.13;21.42;;;11.40;99.90;;;;;;5036410;28;20067;-72
2022/05/08 00:27:23;;;;;;;25.58;20.95;;;11.40;99.90;;;;;;5024863;28;20168;-74
2022/05/08 00:29:50;;;;;;;23.00;19.27;;;11.50;99.90;;;;;;5022757;28;20061;-74
2022/05/08 00:32:16;;;;;;;23.20;20.05;;;11.40;99.90;;;;;;5015924;28;20283;-72
2022/05/08 00:34:47;;;;;;;26.42;19.88;;;11.30;99.90;;;;;;5024425;28;20394;-74
2022/05/08 00:37:13;;;;;;;23.38;19.30;;;11.20;99.90;;;;;;5007586;28;20458;-74
2022/05/08 00:39:42;;;;;;;26.90;20.80;;;11.10;99.90;;;;;;5030599;28;20508;-74
2022/05/08 00:42:10;;;;;;;22.45;20.08;;;10.90;99.90;;;;;;5039251;28;20502;-72
2022/05/08 00:44:36;;;;;;;25.30;20.08;;;10.90;99.90;;;;;;5035231;28;20049;-74
2022/05/08 00:47:04;;;;;;;24.80;20.30;;;10.90;99.90;;;;;;5062675;28;20048;-71
2022/05/08 00:49:33;;;;;;;26.65;21.48;;;10.80;99.90;;;;;;5018423;28;20091;-74
2022/05/08 00:52:04;;;;;;;25.13;20.88;;;10.80;99.90;;;;;;5024109;28;20127;-74
2022/05/08 00:54:31;;;;;;;25.58;20.85;;;10.80;99.90;;;;;;5041721;28;20052;-74
2022/05/08 00:57:01;;;;;;;28.40;22.75;;;10.70;99.90;;;;;;5041582;28;20146;-73
2022/05/08 00:59:28;;;;;;;29.00;22.73;;;10.70;99.90;;;;;;5023198;28;20052;-73
2022/05/08 01:01:54;;;;;;;27.67;22.65;;;10.70;99.90;;;;;;5031322;28;20116;-72
2022/05/08 01:04:22;;;;;;;27.92;21.85;;;10.70;99.90;;;;;;5023604;28;20586;-72
2022/05/08 01:06:49;;;;;;;28.42;21.15;;;10.80;99.90;;;;;;5024926;28;20037;-72
2022/05/08 01:09:17;;;;;;;24.23;21.67;;;10.80;99.90;;;;;;5007882;28;20148;-75
2022/05/08 01:11:44;;;;;;;24.67;22.25;;;10.70;99.90;;;;;;5013669;28;20197;-72
2022/05/08 01:14:13;;;;;;;25.55;22.83;;;10.70;99.90;;;;;;5061384;28;20044;-72
2022/05/08 01:16:40;;;;;;;24.92;22.60;;;10.80;99.90;;;;;;5054148;28;20377;-72
2022/05/08 01:19:08;;;;;;;24.90;22.58;;;10.90;99.90;;;;;;5024225;28;20045;-72
2022/05/08 01:21:42;;;;;;;23.80;21.55;;;10.80;99.90;;;;;;5027455;28;20389;-73
2022/05/08 01:24:10;;;;;;;24.13;21.63;;;10.80;99.90;;;;;;5050608;28;20145;-74
2022/05/08 01:26:37;;;;;;;26.80;21.45;;;11.00;99.90;;;;;;5040363;28;20068;-72
2022/05/08 01:29:03;;;;;;;24.23;21.60;;;10.90;99.90;;;;;;5040207;28;20499;-73
2022/05/08 01:31:31;;;;;;;22.95;20.58;;;10.90;99.90;;;;;;5028060;28;20044;-72
2022/05/08 01:33:58;;;;;;;24.08;20.88;;;11.00;99.90;;;;;;5023167;28;20102;-74
2022/05/08 01:36:25;;;;;;;24.50;20.45;;;11.00;99.90;;;;;;5023091;28;20156;-72
2022/05/08 01:38:55;;;;;;;23.55;19.83;;;10.90;99.90;;;;;;5019179;28;20182;-73
2022/05/08 01:41:21;;;;;;;22.42;20.13;;;10.80;99.90;;;;;;5031315;28;20050;-72
2022/05/08 01:43:48;;;;;;;22.95;20.15;;;10.90;99.90;;;;;;5036170;28;20053;-74
2022/05/08 01:46:16;;;;;;;22.75;20.73;;;10.90;99.90;;;;;;5043530;28;20071;-73
2022/05/08 01:48:42;;;;;;;23.30;21.00;;;10.90;99.90;;;;;;5046039;28;20052;-74
2022/05/08 01:51:12;;;;;;;25.70;21.58;;;10.90;99.90;;;;;;5024128;28;20069;-73
2022/05/08 01:53:39;;;;;;;25.75;22.70;;;10.80;99.90;;;;;;5007668;28;20099;-72
2022/05/08 01:56:07;;;;;;;26.98;23.83;;;10.70;99.90;;;;;;5015679;28;20049;-72
2022/05/08 01:58:34;;;;;;;29.73;24.40;;;10.90;99.90;;;;;;5016361;28;20106;-72
2022/05/08 02:01:04;;;;;;;30.10;26.67;;;10.90;99.90;;;;;;5034559;28;20133;-73
2022/05/08 02:03:32;;;;;;;39.13;29.88;;;10.70;99.90;;;;;;5021144;28;20061;-71
2022/05/08 02:05:59;;;;;;;41.35;32.17;;;10.60;99.90;;;;;;5054404;28;20131;-73
2022/05/08 02:08:26;;;;;;;50.65;35.97;;;10.50;99.90;;;;;;5032424;28;20088;-71
2022/05/08 02:10:53;;;;;;;47.75;37.17;;;10.50;99.90;;;;;;5012514;28;20063;-73
2022/05/08 02:13:20;;;;;;;52.13;37.88;;;10.30;99.90;;;;;;5053472;28;20072;-74
2022/05/08 02:15:47;;;;;;;52.72;38.00;;;10.10;99.90;;;;;;5060968;28;20048;-73
2022/05/08 02:18:13;;;;;;;55.55;36.03;;;9.90;99.90;;;;;;5040025;28;20052;-73
2022/05/08 02:20:40;;;;;;;55.45;37.83;;;9.80;99.90;;;;;;5037467;28;20049;-72
2022/05/08 02:23:08;;;;;;;59.25;37.88;;;9.50;99.90;;;;;;5038104;28;20048;-71
2022/05/08 02:25:36;;;;;;;57.85;38.13;;;9.40;99.90;;;;;;5017891;28;20694;-73
2022/05/08 02:28:03;;;;;;;49.78;36.92;;;9.40;99.90;;;;;;5003501;28;20077;-72
2022/05/08 02:30:30;;;;;;;47.53;32.88;;;9.50;99.90;;;;;;5024943;28;20084;-73
2022/05/08 02:32:58;;;;;;;49.88;33.70;;;9.40;99.90;;;;;;5022324;28;20052;-72
2022/05/08 02:35:25;;;;;;;44.70;31.02;;;9.40;99.90;;;;;;5036623;28;20140;-72
2022/05/08 02:37:53;;;;;;;37.17;29.63;;;9.30;99.90;;;;;;5021415;28;20049;-73
2022/05/08 02:40:24;;;;;;;36.90;29.38;;;9.30;99.90;;;;;;5027506;28;20098;-73
2022/05/08 02:42:52;;;;;;;37.40;30.05;;;9.30;99.90;;;;;;5045604;28;20075;-71
2022/05/08 02:45:20;;;;;;;38.83;30.58;;;9.20;99.90;;;;;;5015785;28;20037;-73
2022/05/08 02:47:47;;;;;;;40.72;28.45;;;9.20;99.90;;;;;;5038205;28;20116;-74
2022/05/08 02:50:14;;;;;;;37.28;28.92;;;9.10;99.90;;;;;;5021996;28;20041;-71
2022/05/08 02:52:41;;;;;;;36.42;28.23;;;9.00;99.90;;;;;;5040539;28;20080;-73
2022/05/08 03:00:43;;;;;;;35.65;28.20;;;9.00;99.90;;;;;;5031623;28;20139;-73
2022/05/08 03:03:11;;;;;;;37.72;30.38;;;9.00;99.90;;;;;;5008241;28;20065;-71
2022/05/08 03:05:41;;;;;;;40.08;29.08;;;8.90;99.90;;;;;;5043513;28;20132;-72
2022/05/08 03:08:08;;;;;;;33.05;26.85;;;8.80;99.90;;;;;;5010482;28;20126;-72
2022/05/08 03:13:20;;;;;;;;;;;8.60;99.90;;;;;;5047824;28;20048;-71
2022/05/08 03:15:47;;;;;;;42.85;25.33;;;8.40;99.90;;;;;;5029493;28;20341;-73
2022/05/08 03:18:16;;;;;;;32.70;24.10;;;8.30;99.90;;;;;;5025108;28;20064;-72
2022/05/08 03:20:46;;;;;;;35.35;24.42;;;8.30;99.90;;;;;;5025713;28;20063;-72
2022/05/08 03:23:14;;;;;;;30.55;24.25;;;8.30;99.90;;;;;;5026208;28;20056;-72
2022/05/08 03:25:42;;;;;;;28.67;24.83;;;8.20;99.90;;;;;;5024278;28;20045;-72
2022/05/08 03:28:10;;;;;;;33.35;23.35;;;8.20;99.90;;;;;;5024967;28;20057;-73
2022/05/08 03:30:36;;;;;;;38.80;24.83;;;8.20;99.90;;;;;;5054987;28;20137;-73
2022/05/08 03:33:03;;;;;;;35.42;24.88;;;8.10;99.90;;;;;;5042380;28;20114;-71
2022/05/08 03:35:30;;;;;;;35.72;24.83;;;8.00;99.90;;;;;;5025551;28;20033;-72
2022/05/08 03:37:57;;;;;;;42.22;24.67;;;7.90;99.90;;;;;;5042451;28;20049;-72
2022/05/08 03:40:26;;;;;;;37.03;25.60;;;7.80;99.90;;;;;;5032772;28;20076;-73
2022/05/08 03:42:54;;;;;;;34.88;23.65;;;7.70;99.90;;;;;;5032499;28;20049;-73
2022/05/08 03:45:21;;;;;;;39.30;24.52;;;7.70;99.90;;;;;;5052516;28;20041;-72
2022/05/08 03:47:51;;;;;;;39.20;22.58;;;7.60;99.90;;;;;;5041452;28;20136;-72
2022/05/08 03:50:19;;;;;;;40.58;23.30;;;7.60;99.90;;;;;;5015952;28;20309;-73
2022/05/08 03:52:46;;;;;;;43.42;22.75;;;7.60;99.90;;;;;;5024018;28;20458;-71
2022/05/08 03:55:15;;;;;;;38.03;21.15;;;7.60;99.90;;;;;;5004003;28;20073;-72
2022/05/08 03:57:43;;;;;;;35.45;21.02;;;7.40;99.90;;;;;;5026003;28;20416;-72
2022/05/08 04:00:11;;;;;;;38.75;22.90;;;7.50;99.90;;;;;;5022753;28;20041;-71
2022/05/08 04:02:41;;;;;;;40.72;22.60;;;7.50;99.90;;;;;;5016880;28;20103;-73
2022/05/08 04:05:08;;;;;;;38.97;20.45;;;7.50;99.90;;;;;;5042265;28;20044;-72
2022/05/08 04:07:37;;;;;;;37.70;20.25;;;7.50;99.90;;;;;;5024247;28;20581;-73
2022/05/08 04:10:05;;;;;;;29.30;20.77;;;7.40;99.90;;;;;;5016044;28;20072;-73
2022/05/08 04:12:32;;;;;;;39.58;19.65;;;7.20;99.90;;;;;;5040465;28;20068;-73
2022/05/08 04:14:59;;;;;;;40.20;19.45;;;7.30;99.90;;;;;;5051598;28;20072;-73
2022/05/08 04:17:28;;;;;;;34.22;19.75;;;7.40;99.90;;;;;;5007504;28;20049;-73
2022/05/08 04:19:55;;;;;;;32.00;18.15;;;7.40;99.90;;;;;;5040195;28;20140;-73
2022/05/08 04:25:08;;;;;;;40.72;18.08;;;7.30;99.90;;;;;;5022260;28;20431;-71
2022/05/08 04:27:37;;;;;;;29.70;17.90;;;7.40;99.90;;;;;;5024887;28;20132;-72
2022/05/08 04:30:05;;;;;;;36.60;16.05;;;7.40;99.90;;;;;;5024156;28;20056;-75
2022/05/08 04:32:32;;;;;;;36.75;15.40;;;7.20;99.90;;;;;;5040679;28;20172;-74
2022/05/08 04:34:58;;;;;;;34.33;15.25;;;7.00;99.90;;;;;;5021074;28;20126;-75
2022/05/08 04:37:25;;;;;;;33.35;15.40;;;7.10;99.90;;;;;;5042072;28;20518;-73
2022/05/08 04:39:51;;;;;;;35.88;15.75;;;7.20;99.90;;;;;;5022362;28;20404;-72
2022/05/08 04:42:18;;;;;;;35.55;16.60;;;7.20;99.90;;;;;;5041315;28;20037;-75
2022/05/08 04:44:45;;;;;;;27.02;14.68;;;7.20;99.90;;;;;;5033427;28;20060;-75
2022/05/08 04:47:12;;;;;;;29.75;15.85;;;7.10;99.90;;;;;;5016247;28;20132;-74
2022/05/08 04:49:38;;;;;;;42.92;17.80;;;7.10;99.90;;;;;;5042217;28;20641;-75
2022/05/08 04:52:05;;;;;;;36.40;16.58;;;7.20;99.90;;;;;;5023605;28;20061;-75
2022/05/08 04:54:32;;;;;;;25.55;16.10;;;7.30;99.90;;;;;;5023391;28;20048;-76
2022/05/08 04:57:01;;;;;;;22.80;14.85;;;7.30;99.90;;;;;;5040005;28;20049;-75
2022/05/08 04:59:31;;;;;;;34.17;16.52;;;7.30;99.90;;;;;;5040804;28;20462;-74
2022/05/08 05:01:57;;;;;;;32.95;16.90;;;7.40;99.90;;;;;;5022557;28;20534;-74
2022/05/08 05:04:24;;;;;;;33.00;16.73;;;7.60;99.90;;;;;;5034432;28;20068;-75
2022/05/08 05:06:51;;;;;;;39.75;17.15;;;7.70;99.90;;;;;;5041413;28;20293;-75
2022/05/08 05:09:18;;;;;;;31.23;16.83;;;7.60;99.90;;;;;;5018309;28;20037;-74
2022/05/08 05:11:44;;;;;;;29.90;17.00;;;7.70;99.90;;;;;;5012661;28;20094;-74
2022/05/08 05:14:11;;;;;;;32.88;16.25;;;7.60;99.90;;;;;;5017766;28;20142;-73
2022/05/08 05:16:38;;;;;;;39.08;17.35;;;7.70;99.90;;;;;;5036800;28;20098;-76
2022/05/08 05:19:05;;;;;;;25.88;16.73;;;7.80;99.90;;;;;;5023296;28;20139;-74
2022/05/08 05:21:31;;;;;;;26.98;18.05;;;8.00;99.90;;;;;;5028626;28;20545;-76
2022/05/08 05:23:58;;;;;;;34.17;20.15;;;8.10;99.90;;;;;;5035245;28;20205;-73
2022/05/08 05:26:25;;;;;;;26.77;19.23;;;8.50;99.90;;;;;;5040173;28;20076;-73
2022/05/08 05:28:52;;;;;;;24.33;19.23;;;8.50;99.90;;;;;;5041649;28;20107;-72
2022/05/08 05:31:18;;;;;;;34.35;20.27;;;8.80;99.90;;;;;;5039701;28;20048;-72
2022/05/08 05:33:46;;;;;;;29.08;20.00;;;8.90;99.90;;;;;;5040127;28;20323;-73
2022/05/08 05:36:14;;;;;;;33.15;21.35;;;8.90;99.90;;;;;;5020430;28;20470;-73
2022/05/08 05:38:41;;;;;;;32.92;20.33;;;8.90;99.90;;;;;;5037417;28;20563;-74
2022/05/08 05:41:07;;;;;;;29.92;20.75;;;8.90;99.90;;;;;;5028664;28;20195;-72
2022/05/08 05:43:34;;;;;;;24.27;20.10;;;8.80;99.90;;;;;;5029560;28;20102;-72
2022/05/08 05:48:46;;;;;;;28.20;21.60;;;9.00;99.90;;;;;;5020311;28;20392;-72
2022/05/08 05:51:13;;;;;;;31.08;21.20;;;9.10;99.90;;;;;;5022838;28;20127;-73
2022/05/08 05:53:39;;;;;;;34.03;20.85;;;9.20;99.90;;;;;;5023133;28;20624;-73
2022/05/08 05:56:06;;;;;;;30.30;21.00;;;9.00;99.90;;;;;;5023701;28;20435;-72
2022/05/08 05:58:33;;;;;;;36.95;21.77;;;8.70;99.90;;;;;;5041764;28;20037;-72
2022/05/08 06:00:59;;;;;;;26.52;20.83;;;8.80;99.90;;;;;;5037302;28;20140;-74
2022/05/08 06:03:26;;;;;;;26.60;20.75;;;9.10;99.90;;;;;;5005458;28;20111;-72
2022/05/08 06:05:53;;;;;;;34.65;20.95;;;9.30;99.90;;;;;;5017546;28;21311;-74
2022/05/08 06:08:20;;;;;;;35.28;23.27;;;9.50;99.90;;;;;;5039657;28;20087;-74
2022/05/08 06:10:46;;;;;;;26.75;21.95;;;9.60;99.90;;;;;;5032194;28;20130;-73
2022/05/08 06:13:13;;;;;;;31.23;22.42;;;9.70;99.90;;;;;;5051369;28;20046;-73
2022/05/08 06:15:40;;;;;;;26.13;22.48;;;9.80;99.90;;;;;;5044562;28;20041;-73
2022/05/08 06:18:07;;;;;;;26.17;21.77;;;9.50;99.90;;;;;;5031207;28;20096;-72
2022/05/08 06:20:34;;;;;;;30.52;21.88;;;9.30;99.90;;;;;;5002499;28;20119;-72
2022/05/08 06:23:01;;;;;;;27.10;20.58;;;9.30;99.90;;;;;;5014772;28;20132;-73
2022/05/08 06:25:30;;;;;;;34.78;23.30;;;9.40;99.90;;;;;;5009204;28;20048;-73
2022/05/08 06:27:57;;;;;;;33.47;22.48;;;9.50;99.90;;;;;;5060314;28;20048;-71
2022/05/08 06:30:24;;;;;;;28.20;23.58;;;9.60;99.90;;;;;;5028034;28;20081;-74
2022/05/08 06:32:51;;;;;;;26.35;23.52;;;9.60;99.90;;;;;;5023786;28;20399;-73
2022/05/08 06:35:40;;;;;;;29.38;22.52;;;9.60;99.90;;;;;;5027624;28;20044;-74
2022/05/08 06:38:10;;;;;;;32.72;23.52;;;9.60;99.90;;;;;;5042433;28;20106;-71
2022/05/08 06:40:38;;;;;;;27.67;23.45;;;9.40;99.90;;;;;;5031119;28;20045;-73
2022/05/08 06:43:09;;;;;;;30.85;22.83;;;9.40;99.90;;;;;;5049827;28;20125;-73
2022/05/08 06:45:36;;;;;;;27.45;23.30;;;9.60;99.90;;;;;;5048176;28;20144;-74
2022/05/08 06:48:05;;;;;;;29.73;23.00;;;9.90;99.90;;;;;;5024844;28;20251;-73
2022/05/08 06:50:33;;;;;;;31.00;22.73;;;10.00;99.90;;;;;;5020994;28;20128;-72
2022/05/08 06:53:00;;;;;;;30.27;23.67;;;10.00;99.90;;;;;;5006494;28;20595;-72
2022/05/08 06:55:27;;;;;;;32.08;23.45;;;10.00;99.90;;;;;;5023293;28;20037;-73
2022/05/08 06:57:54;;;;;;;29.00;24.23;;;10.10;99.90;;;;;;5025678;28;20261;-73
2022/05/08 07:03:06;;;;;;;34.47;24.05;;;10.20;99.90;;;;;;5028732;28;20053;-72
2022/05/08 07:05:38;;;;;;;32.17;24.73;;;10.20;99.90;;;;;;5024157;28;20053;-74
2022/05/08 07:08:04;;;;;;;30.60;23.55;;;10.30;99.90;;;;;;5014677;28;20465;-73
2022/05/08 07:10:31;;;;;;;31.27;24.65;;;10.50;99.90;;;;;;5031529;28;20144;-72
2022/05/08 07:12:58;;;;;;;27.83;24.83;;;10.50;99.90;;;;;;5049182;28;20122;-74
2022/05/08 07:15:25;;;;;;;27.13;24.63;;;10.60;99.90;;;;;;5017393;28;20040;-73
2022/05/08 07:18:11;;;;;;;26.15;23.40;;;10.80;99.90;;;;;;4993925;28;20400;-74
2022/05/08 07:20:38;;;;;;;30.17;24.23;;;10.70;99.90;;;;;;5041286;28;20115;-73
2022/05/08 07:23:05;;;;;;;26.60;23.58;;;10.80;99.90;;;;;;5047371;28;20080;-73
2022/05/08 07:25:32;;;;;;;32.17;23.67;;;10.60;99.90;;;;;;5024336;28;20328;-73
2022/05/08 07:27:58;;;;;;;29.13;22.95;;;10.70;99.90;;;;;;5016590;28;20049;-73
2022/05/08 07:30:25;;;;;;;28.52;23.95;;;10.70;99.90;;;;;;5021365;28;20496;-73
2022/05/08 07:32:52;;;;;;;28.02;24.08;;;10.30;99.90;;;;;;5037486;28;20049;-73
2022/05/08 07:38:05;;;;;;;;;;;10.40;99.90;;;;;;5043955;28;20115;-73
2022/05/08 07:40:33;;;;;;;28.55;25.88;;;10.70;99.90;;;;;;5030306;28;20015;-73
2022/05/08 07:43:01;;;;;;;28.77;25.95;;;10.90;99.90;;;;;;5029886;28;20110;-73
2022/05/08 07:45:28;;;;;;;30.80;25.80;;;11.00;99.90;;;;;;5048129;28;20110;-72
2022/05/08 07:47:58;;;;;;;26.98;24.30;;;11.00;99.90;;;;;;5031160;28;20192;-74
2022/05/08 07:50:25;;;;;;;29.05;26.13;;;11.10;99.90;;;;;;5013066;28;20196;-73
2022/05/08 07:52:52;;;;;;;27.88;25.08;;;11.40;99.90;;;;;;4995554;28;20888;-73
2022/05/08 07:55:19;;;;;;;29.42;25.35;;;11.50;99.90;;;;;;5037505;28;20049;-74
2022/05/08 07:57:46;;;;;;;27.35;25.10;;;11.70;99.90;;;;;;5021972;28;20059;-73
2022/05/08 08:00:13;;;;;;;31.42;25.95;;;11.60;99.90;;;;;;5023413;28;20054;-73
2022/05/08 08:02:40;;;;;;;28.27;25.52;;;11.90;99.90;;;;;;5038449;28;20060;-74
2022/05/08 08:05:07;;;;;;;27.58;24.95;;;12.30;99.90;;;;;;5039810;23;20048;-70
2022/05/08 08:07:36;;;;;;;28.48;25.75;;;12.50;99.90;;;;;;5030084;28;20480;-72
2022/05/08 08:10:04;;;;;;;27.92;25.02;;;12.30;99.90;;;;;;5030388;28;20642;-71
2022/05/08 08:12:32;;;;;;;29.80;26.55;;;12.50;99.90;;;;;;5037038;28;20425;-70
2022/05/08 08:14:59;;;;;;;32.20;24.83;;;12.30;99.90;;;;;;5032675;28;20435;-70
2022/05/08 08:17:27;;;;;;;29.73;26.83;;;12.20;99.90;;;;;;5031500;28;20472;-70
2022/05/08 08:19:55;;;;;;;28.00;25.48;;;11.90;99.90;;;;;;5001615;28;20402;-71
2022/05/08 08:22:22;;;;;;;31.73;25.90;;;12.10;99.90;;;;;;5033367;28;20060;-70
2022/05/08 08:24:49;;;;;;;28.77;25.35;;;12.10;99.90;;;;;;5012586;28;20124;-70
2022/05/08 08:27:18;;;;;;;27.50;24.85;;;12.40;99.90;;;;;;5007060;28;20476;-70
2022/05/08 08:29:46;;;;;;;27.35;24.60;;;12.70;99.90;;;;;;5034857;28;20064;-71
2022/05/08 08:32:13;;;;;;;28.73;24.67;;;12.90;99.90;;;;;;5029459;28;20044;-70
2022/05/08 08:34:40;;;;;;;31.52;25.00;;;12.90;99.90;;;;;;5008146;28;20056;-70
2022/05/08 08:37:06;;;;;;;27.95;25.13;;;12.40;99.90;;;;;;5030073;28;20049;-70
2022/05/08 08:39:33;;;;;;;27.80;24.90;;;12.10;99.90;;;;;;5005557;28;20041;-70
2022/05/08 08:42:15;;;;;;;28.88;25.50;;;12.10;99.90;;;;;;5009012;28;20103;-70
2022/05/08 08:47:44;;;;;;;26.95;24.33;;;12.20;99.90;;;;;;5009589;28;20196;-70
2022/05/08 08:50:12;;;;;;;30.42;26.67;;;12.10;99.90;;;;;;5015418;28;20053;-69
2022/05/08 08:52:39;;;;;;;26.80;24.38;;;11.80;99.90;;;;;;5007054;28;20056;-70
2022/05/08 08:55:07;;;;;;;27.48;24.15;;;12.00;99.90;;;;;;5027312;28;20045;-70
2022/05/08 08:57:34;;;;;;;27.65;25.00;;;12.30;99.90;;;;;;5023127;28;20452;-70
2022/05/08 09:00:01;;;;;;;26.50;24.25;;;12.50;99.90;;;;;;5028868;28;20053;-70
2022/05/08 09:02:29;;;;;;;26.17;23.83;;;12.80;99.90;;;;;;5025261;28;20079;-69
2022/05/08 09:04:57;;;;;;;26.63;24.42;;;13.10;99.90;;;;;;5016684;28;20052;-70
2022/05/08 09:07:40;;;;;;;29.67;24.95;;;13.10;99.90;;;;;;5025119;28;20104;-71
2022/05/08 09:10:16;;;;;;;32.50;24.80;;;12.70;99.90;;;;;;5021599;28;20061;-70
2022/05/08 09:13:04;;;;;;;28.23;25.27;;;12.40;99.90;;;;;;5010721;28;20099;-71
2022/05/08 09:15:37;;;;;;;25.92;24.08;;;12.20;99.90;;;;;;5027134;28;20041;-73
2022/05/08 09:18:12;;;;;;;27.00;24.45;;;12.50;99.90;;;;;;5029717;28;20148;-70
2022/05/08 09:20:40;;;;;;;26.45;24.27;;;12.60;99.90;;;;;;5013892;28;20045;-70
2022/05/08 09:23:23;;;;;;;29.35;26.48;;;12.90;99.90;;;;;;5004843;28;20103;-71
2022/05/08 09:25:56;;;;;;;27.13;24.88;;;12.90;99.90;;;;;;5015634;28;20552;-72
2022/05/08 09:28:40;;;;;;;26.55;24.15;;;13.30;99.90;;;;;;5031220;28;20481;-71
2022/05/08 09:31:18;;;;;;;26.75;24.48;;;13.50;99.90;;;;;;5025707;28;20102;-71
2022/05/08 09:33:47;;;;;;;27.10;25.00;;;13.40;99.90;;;;;;5027296;28;20513;-71
2022/05/08 09:36:24;;;;;;;25.85;23.65;;;13.50;99.90;;;;;;5013348;28;20037;-71
2022/05/08 09:38:55;;;;;;;25.33;23.48;;;13.60;99.90;;;;;;5008828;28;20048;-70
2022/05/08 09:41:24;;;;;;;24.38;22.70;;;13.00;99.90;;;;;;5028489;28;20536;-71
2022/05/08 09:43:53;;;;;;;26.98;24.42;;;13.20;99.90;;;;;;5011646;28;20342;-70
2022/05/08 09:46:20;;;;;;;27.08;24.70;;;13.40;99.90;;;;;;5033236;28;20073;-71
2022/05/08 09:48:48;;;;;;;28.38;25.80;;;13.80;99.90;;;;;;5013856;28;20049;-72
2022/05/08 09:51:16;;;;;;;25.45;23.58;;;14.10;99.90;;;;;;5028386;28;20441;-71
2022/05/08 09:53:44;;;;;;;27.88;25.73;;;13.70;99.90;;;;;;5015729;28;20044;-71
2022/05/08 09:56:12;;;;;;;27.80;25.42;;;13.80;99.90;;;;;;5034745;28;20037;-70
2022/05/08 09:58:43;;;;;;;26.35;24.15;;;14.20;99.90;;;;;;5034050;28;20489;-70
2022/05/08 10:01:13;;;;;;;29.38;26.77;;;14.60;99.90;;;;;;5030306;28;20783;-71
2022/05/08 10:03:43;;;;;;;31.13;28.55;;;14.70;99.90;;;;;;5035163;28;20060;-74
2022/05/08 10:06:10;;;;;;;31.40;28.73;;;14.20;99.90;;;;;;5038368;28;20049;-72
2022/05/08 10:08:38;;;;;;;29.73;27.05;;;14.20;99.90;;;;;;5035066;28;20065;-70
2022/05/08 10:14:00;;;;;;;28.33;25.88;;;15.40;99.90;;;;;;5057706;28;20533;-74
2022/05/08 10:16:52;;;;;;;33.20;31.02;;;15.60;99.90;;;;;;5031437;28;20053;-73
2022/05/08 10:19:27;;;;;;;29.90;27.48;;;15.40;99.90;;;;;;5011573;28;20045;-71
2022/05/08 10:22:02;;;;;;;28.05;26.00;;;16.30;99.90;;;;;;5032044;28;20048;-72
2022/05/08 10:24:34;;;;;;;29.10;27.05;;;16.40;99.90;;;;;;5019041;28;20037;-71
2022/05/08 10:27:19;;;;;;;30.80;28.38;;;16.90;99.90;;;;;;5047779;28;20052;-70
2022/05/08 10:29:52;;;;;;;35.03;31.90;;;16.80;99.90;;;;;;5018315;28;20568;-73
2022/05/08 10:32:29;;;;;;;34.22;31.40;;;17.20;99.90;;;;;;5029501;28;20510;-71
2022/05/08 10:35:17;;;;;;;34.70;31.83;;;16.90;99.90;;;;;;5037410;28;20359;-71
2022/05/08 10:37:51;;;;;;;33.45;30.25;;;17.00;99.90;;;;;;5035987;28;20114;-70
2022/05/08 10:40:21;;;;;;;33.70;31.45;;;17.50;99.90;;;;;;5012443;28;20049;-71
2022/05/08 10:42:54;;;;;;;32.88;30.42;;;17.20;99.90;;;;;;5045157;28;20045;-70
2022/05/08 10:45:30;;;;;;;34.20;31.73;;;17.30;99.90;;;;;;5025398;28;20049;-70
2022/05/08 10:48:10;;;;;;;31.92;29.80;;;16.40;99.90;;;;;;5021415;28;20041;-70
2022/05/08 10:50:59;;;;;;;30.15;27.95;;;16.10;99.90;;;;;;5026866;28;20485;-70
2022/05/08 10:53:29;;;;;;;29.95;28.02;;;16.70;99.90;;;;;;5016824;28;20112;-73
2022/05/08 10:56:00;;;;;;;27.83;25.90;;;17.00;99.90;;;;;;5018925;28;20045;-73
2022/05/08 10:58:27;;;;;;;30.15;27.80;;;17.40;99.90;;;;;;5038432;28;20398;-72
2022/05/08 11:00:59;;;;;;;29.60;27.27;;;16.50;99.90;;;;;;5018888;28;20041;-70
2022/05/08 11:03:26;;;;;;;32.38;29.23;;;16.60;99.90;;;;;;4995827;28;20335;-72
2022/05/08 11:05:53;;;;;;;29.95;27.73;;;16.80;99.90;;;;;;5017495;28;20103;-70
2022/05/08 11:08:23;;;;;;;30.30;27.85;;;17.10;99.90;;;;;;5023431;28;20040;-74
2022/05/08 11:10:58;;;;;;;32.50;29.48;;;17.40;99.90;;;;;;5017687;28;20053;-72
2022/05/08 11:13:36;;;;;;;30.48;28.25;;;17.30;99.90;;;;;;5045824;28;20080;-71
2022/05/08 11:16:02;;;;;;;31.92;29.13;;;17.20;99.90;;;;;;5033936;28;20330;-71
2022/05/08 11:18:29;;;;;;;30.25;27.77;;;17.30;99.90;;;;;;5027292;28;20672;-72
2022/05/08 11:21:05;;;;;;;31.38;29.10;;;17.50;99.90;;;;;;5032676;28;20049;-70
2022/05/08 11:23:40;;;;;;;31.17;29.00;;;17.60;99.90;;;;;;5032758;28;20045;-71
2022/05/08 11:26:09;;;;;;;30.15;28.05;;;16.90;99.90;;;;;;5017420;28;20056;-73
2022/05/08 11:28:46;;;;;;;31.60;29.20;;;16.80;99.90;;;;;;5035138;28;20052;-72
2022/05/08 11:31:15;;;;;;;31.77;29.40;;;17.00;99.90;;;;;;5016893;28;20110;-73
2022/05/08 11:36:33;;;;;;;33.22;30.83;;;17.90;99.90;;;;;;5012477;28;20048;-72
2022/05/08 11:39:05;;;;;;;31.30;29.13;;;17.30;99.90;;;;;;5005428;28;20048;-71
2022/05/08 11:41:32;;;;;;;33.53;31.05;;;17.40;99.90;;;;;;5031940;28;20417;-71
2022/05/08 11:44:03;;;;;;;31.70;29.25;;;17.80;99.90;;;;;;5043475;28;20377;-74
2022/05/08 11:46:37;;;;;;;31.52;29.40;;;17.80;99.90;;;;;;5033963;28;20456;-73
2022/05/08 11:49:24;;;;;;;32.22;29.77;;;17.60;99.90;;;;;;5016923;28;20080;-75
2022/05/08 11:51:59;;;;;;;30.60;28.45;;;17.90;99.90;;;;;;5014489;28;20053;-71
2022/05/08 11:54:35;;;;;;;33.67;31.02;;;17.80;99.90;;;;;;5014811;28;20668;-71
2022/05/08 11:57:20;;;;;;;34.92;32.30;;;18.60;99.90;;;;;;5003485;28;20576;-70
2022/05/08 11:59:50;;;;;;;36.13;33.38;;;19.00;99.90;;;;;;5014871;28;20057;-74
2022/05/08 12:02:18;;;;;;;33.90;31.48;;;19.20;99.90;;;;;;5014269;28;20053;-75
2022/05/08 12:04:57;;;;;;;32.83;30.15;;;18.80;99.90;;;;;;5014065;28;20059;-72
2022/05/08 12:07:25;;;;;;;33.20;30.42;;;19.00;99.90;;;;;;5014644;28;20052;-71
2022/05/08 12:09:56;;;;;;;35.15;32.67;;;19.10;99.90;;;;;;5028414;28;20788;-70
2022/05/08 12:12:29;;;;;;;33.70;30.95;;;18.00;99.90;;;;;;5036909;28;20198;-71
2022/05/08 12:15:06;;;;;;;32.90;30.65;;;18.20;99.90;;;;;;5036215;28;20286;-70
2022/05/08 12:17:40;;;;;;;31.13;28.83;;;17.40;99.90;;;;;;5027269;28;20042;-71
2022/05/08 12:20:11;;;;;;;33.42;30.48;;;17.60;99.90;;;;;;5025757;28;20520;-73
2022/05/08 12:22:38;;;;;;;31.27;29.20;;;17.70;99.90;;;;;;5034289;28;20183;-76
2022/05/08 12:25:08;;;;;;;31.95;29.40;;;18.00;99.90;;;;;;5032421;28;20061;-69
2022/05/08 12:27:35;;;;;;;30.95;28.63;;;18.20;99.90;;;;;;5034182;28;20072;-71
2022/05/08 12:30:06;;;;;;;31.58;29.48;;;17.90;99.90;;;;;;5025115;28;20119;-74
2022/05/08 12:32:39;;;;;;;30.17;28.08;;;18.30;99.90;;;;;;5011656;28;20056;-70
2022/05/08 12:35:09;;;;;;;29.63;27.33;;;18.60;99.90;;;;;;5029194;28;20127;-73
2022/05/08 12:37:38;;;;;;;30.00;27.58;;;19.20;99.90;;;;;;5034385;28;20061;-71
2022/05/08 12:40:06;;;;;;;29.63;27.67;;;19.50;99.90;;;;;;5041881;28;20044;-70
2022/05/08 12:42:33;;;;;;;30.05;27.77;;;19.30;99.90;;;;;;5010561;28;20041;-74
2022/05/08 12:45:00;;;;;;;29.30;27.27;;;19.40;99.90;;;;;;5047559;28;20041;-71
2022/05/08 12:47:28;;;;;;;29.58;27.55;;;19.20;99.90;;;;;;5055155;28;20052;-71
2022/05/08 12:49:57;;;;;;;30.60;28.33;;;18.80;99.90;;;;;;5021626;28;20399;-71
2022/05/08 12:52:24;;;;;;;29.02;27.27;;;19.10;99.90;;;;;;5028882;28;20555;-71
2022/05/08 12:54:51;;;;;;;31.48;29.13;;;19.00;99.90;;;;;;5033675;28;20048;-72
2022/05/08 13:00:05;;;;;;;29.60;27.63;;;18.30;99.90;;;;;;5016185;28;20478;-70
2022/05/08 13:02:32;;;;;;;30.85;28.70;;;18.40;99.90;;;;;;5011450;28;20295;-70
2022/05/08 13:05:00;;;;;;;29.35;27.35;;;18.30;99.90;;;;;;5014521;28;20049;-72
2022/05/08 13:07:27;;;;;;;29.95;27.95;;;18.30;99.90;;;;;;5014579;28;20045;-71
2022/05/08 13:09:54;;;;;;;30.00;28.23;;;18.60;99.90;;;;;;5033530;28;20049;-69
2022/05/08 13:12:22;;;;;;;30.65;28.52;;;18.90;99.90;;;;;;5012769;28;20146;-73